Time;durP1;ratioP1;P1;durP2;ratioP2;P2;SDS_P1;SDS_P2;PMS_P1;PMS_P2;Temp;Humidity;BMP_temperature;BMP_pressure;BME280_temperature;BME280_humidity;BME280_pressure;Samples;Min_cycle;Max_cycle;Signal;HPM_P1;HPM_P2
2024/03/09 00:00:48;;;;;;;8.20;7.45;;;0.80;99.90;;;;;;4910188;29;20269;-82
2024/03/09 00:03:15;;;;;;;24.42;9.10;;;0.90;99.90;;;;;;4908340;29;20205;-82
2024/03/09 00:05:43;;;;;;;7.53;7.00;;;0.90;99.90;;;;;;4914742;29;20212;-83
2024/03/09 00:08:11;;;;;;;8.65;7.90;;;1.00;99.90;;;;;;4917732;29;20276;-84
2024/03/09 00:10:39;;;;;;;7.63;6.70;;;0.90;99.90;;;;;;4914125;29;20213;-84
2024/03/09 00:13:10;;;;;;;13.15;10.50;;;0.90;99.90;;;;;;4922298;29;20196;-83
2024/03/09 00:15:39;;;;;;;13.60;9.55;;;0.80;99.90;;;;;;4921883;29;20220;-81
2024/03/09 00:18:07;;;;;;;4.72;4.30;;;0.80;99.90;;;;;;4921010;29;20237;-80
2024/03/09 00:20:37;;;;;;;10.90;9.73;;;0.80;99.90;;;;;;4920324;29;20205;-82
2024/03/09 00:23:07;;;;;;;10.13;7.07;;;0.80;99.90;;;;;;4922629;29;20232;-83
2024/03/09 00:25:37;;;;;;;7.43;7.03;;;0.80;99.90;;;;;;4902610;29;20642;-82
2024/03/09 00:28:05;;;;;;;6.65;6.05;;;0.70;99.90;;;;;;4916371;29;20228;-81
2024/03/09 00:30:34;;;;;;;7.68;7.15;;;0.60;99.90;;;;;;4908618;29;20219;-83
2024/03/09 00:33:05;;;;;;;9.65;6.78;;;0.70;99.90;;;;;;4909420;29;20298;-81
2024/03/09 00:35:34;;;;;;;5.25;4.78;;;0.80;99.90;;;;;;4908496;29;20378;-81
2024/03/09 00:38:03;;;;;;;8.82;8.18;;;0.70;99.90;;;;;;4901148;29;20214;-82
2024/03/09 00:40:34;;;;;;;8.23;7.63;;;0.50;99.90;;;;;;4907326;29;20220;-82
2024/03/09 00:43:07;;;;;;;11.80;9.60;;;0.60;99.90;;;;;;4907832;29;20275;-82
2024/03/09 00:45:37;;;;;;;4.13;3.92;;;0.60;99.90;;;;;;4907605;29;20228;-83
2024/03/09 00:48:05;;;;;;;12.90;9.45;;;0.50;99.90;;;;;;4903574;29;20619;-82
2024/03/09 00:50:32;;;;;;;10.10;9.15;;;0.60;99.90;;;;;;4905118;29;20250;-83
2024/03/09 00:53:03;;;;;;;9.15;5.22;;;0.50;99.90;;;;;;4917916;29;20224;-82
2024/03/09 00:55:31;;;;;;;12.70;8.85;;;0.40;99.90;;;;;;4910751;29;20209;-81
2024/03/09 00:58:01;;;;;;;10.88;9.82;;;0.60;99.90;;;;;;4931963;29;20200;-83
2024/03/09 01:00:33;;;;;;;6.47;5.97;;;0.60;99.90;;;;;;4946890;28;20193;-83
2024/03/09 01:03:00;;;;;;;8.75;8.02;;;0.60;99.90;;;;;;4917429;29;20548;-84
2024/03/09 01:05:27;;;;;;;8.50;7.95;;;0.40;99.90;;;;;;4910081;29;20217;-85
2024/03/09 01:07:54;;;;;;;9.82;8.90;;;0.50;99.90;;;;;;4909369;29;20442;-83
2024/03/09 01:10:23;;;;;;;8.20;7.47;;;0.50;99.90;;;;;;4911966;29;20268;-84
2024/03/09 01:12:50;;;;;;;13.15;11.20;;;0.40;99.90;;;;;;4918905;29;20743;-83
2024/03/09 01:15:26;;;;;;;8.63;7.35;;;0.40;99.90;;;;;;4905676;29;20201;-84
2024/03/09 01:17:53;;;;;;;7.97;7.43;;;0.40;99.90;;;;;;4918746;29;20225;-84
2024/03/09 01:20:21;;;;;;;10.55;9.75;;;0.40;99.90;;;;;;4922318;29;20244;-83
2024/03/09 01:22:51;;;;;;;13.60;11.90;;;0.40;99.90;;;;;;4907811;29;20275;-81
2024/03/09 01:25:19;;;;;;;9.73;8.70;;;0.30;99.90;;;;;;4890245;29;20266;-81
2024/03/09 01:27:46;;;;;;;8.45;7.85;;;0.30;99.90;;;;;;4903341;29;20249;-81
2024/03/09 01:30:15;;;;;;;8.07;7.50;;;0.30;99.90;;;;;;4920196;29;20213;-81
2024/03/09 01:32:43;;;;;;;5.03;4.60;;;0.30;99.90;;;;;;4925495;29;20291;-85
2024/03/09 01:35:23;;;;;;;13.35;11.73;;;0.40;99.90;;;;;;4908937;29;20209;-85
2024/03/09 01:37:51;;;;;;;6.07;5.53;;;0.40;99.90;;;;;;4909731;29;20209;-83
2024/03/09 01:40:18;;;;;;;12.30;10.68;;;0.30;99.90;;;;;;4906576;29;20220;-81
2024/03/09 01:42:46;;;;;;;7.70;7.13;;;0.20;99.90;;;;;;4905995;29;20293;-83
2024/03/09 01:45:15;;;;;;;10.07;9.18;;;0.20;99.90;;;;;;4906223;29;20220;-82
2024/03/09 01:47:42;;;;;;;7.60;6.25;;;0.30;99.90;;;;;;4893700;29;20223;-82
2024/03/09 01:50:10;;;;;;;4.25;4.05;;;0.30;99.90;;;;;;4917328;29;20270;-82
2024/03/09 01:52:43;;;;;;;12.40;9.30;;;0.10;99.90;;;;;;4909708;29;20275;-85
2024/03/09 01:55:12;;;;;;;10.73;8.10;;;0.10;99.90;;;;;;4915155;29;20219;-81
2024/03/09 01:57:40;;;;;;;6.10;5.75;;;0.20;99.90;;;;;;4907780;29;20241;-81
2024/03/09 02:00:09;;;;;;;9.60;8.68;;;0.10;99.90;;;;;;4904733;29;20248;-82
2024/03/09 02:02:39;;;;;;;11.27;10.32;;;0.00;99.90;;;;;;4908297;29;20273;-83
2024/03/09 02:05:10;;;;;;;9.45;8.50;;;0.10;99.90;;;;;;4907036;29;20221;-85
2024/03/09 02:07:48;;;;;;;13.25;9.65;;;0.10;99.90;;;;;;4907567;29;20209;-83
2024/03/09 02:10:18;;;;;;;9.13;8.48;;;0.00;99.90;;;;;;4912088;29;20216;-82
2024/03/09 02:12:45;;;;;;;8.38;7.95;;;0.10;99.90;;;;;;4919157;29;20194;-82
2024/03/09 02:15:16;;;;;;;10.23;6.93;;;0.10;99.90;;;;;;4916251;29;20406;-81
2024/03/09 02:17:46;;;;;;;4.47;4.05;;;0.00;99.90;;;;;;4917834;29;20224;-81
2024/03/09 02:20:16;;;;;;;10.52;7.45;;;0.10;99.90;;;;;;4912171;29;20201;-83
2024/03/09 02:22:46;;;;;;;7.78;7.15;;;0.10;99.90;;;;;;4909260;29;20261;-83
2024/03/09 02:25:18;;;;;;;15.68;7.55;;;0.00;99.90;;;;;;4913426;29;20229;-84
2024/03/09 02:27:47;;;;;;;13.75;8.73;;;0.00;99.90;;;;;;4929006;29;20249;-83
2024/03/09 02:30:14;;;;;;;8.80;8.00;;;-0.10;99.90;;;;;;4919290;29;20237;-82
2024/03/09 02:32:43;;;;;;;15.32;9.98;;;0.00;99.90;;;;;;4914954;29;20217;-81
2024/03/09 02:35:10;;;;;;;10.60;9.65;;;0.10;99.90;;;;;;4898956;29;20256;-82
2024/03/09 02:37:39;;;;;;;8.00;7.40;;;0.10;99.90;;;;;;4906291;29;20213;-84
2024/03/09 02:40:07;;;;;;;5.07;4.50;;;0.10;99.90;;;;;;4905925;29;20551;-83
2024/03/09 02:43:04;;;;;;;16.50;8.40;;;0.10;99.90;;;;;;4911312;29;20232;-83
2024/03/09 02:45:28;;;;;;;9.98;8.88;;;0.10;99.90;;;;;;4910839;29;20224;-83
2024/03/09 02:47:58;;;;;;;11.27;9.70;;;0.00;99.90;;;;;;4911345;29;20232;-83
2024/03/09 02:50:28;;;;;;;10.77;9.70;;;0.00;99.90;;;;;;4919331;29;20245;-86
2024/03/09 02:52:57;;;;;;;7.32;6.82;;;0.10;99.90;;;;;;4911169;29;20277;-83
2024/03/09 02:55:26;;;;;;;9.35;8.52;;;0.10;99.90;;;;;;4917698;29;20213;-81
2024/03/09 02:57:56;;;;;;;8.00;7.57;;;0.10;99.90;;;;;;4905078;29;20245;-80
2024/03/09 03:00:26;;;;;;;9.13;8.25;;;0.20;99.90;;;;;;4903490;29;20698;-82
2024/03/09 03:05:45;;;;;;;16.23;7.43;;;0.20;99.90;;;;;;4905413;29;20213;-85
2024/03/09 03:08:15;;;;;;;10.50;9.73;;;0.20;99.90;;;;;;4905792;29;20212;-83
2024/03/09 03:10:42;;;;;;;14.20;12.98;;;0.30;99.90;;;;;;4905802;29;20225;-85
2024/03/09 03:13:14;;;;;;;15.38;8.00;;;0.30;99.90;;;;;;4899261;29;20238;-85
2024/03/09 03:15:40;;;;;;;8.60;7.72;;;0.20;99.90;;;;;;4906275;29;20205;-87
2024/03/09 03:18:09;;;;;;;6.97;6.53;;;0.10;99.90;;;;;;4973974;23;20223;-88
2024/03/09 03:20:38;;;;;;;15.70;9.73;;;0.00;99.90;;;;;;4957073;28;20305;-87
2024/03/09 03:23:07;;;;;;;19.95;4.88;;;-0.10;99.90;;;;;;4959177;28;20216;-87
2024/03/09 03:25:38;;;;;;;7.90;5.88;;;0.00;99.90;;;;;;4955141;28;20222;-82
2024/03/09 03:28:07;;;;;;;12.73;11.45;;;-0.10;99.90;;;;;;4947180;29;20267;-82
2024/03/09 03:30:38;;;;;;;16.23;5.90;;;-0.10;99.90;;;;;;4945118;29;20234;-84
2024/03/09 03:33:06;;;;;;;8.90;8.27;;;-0.10;99.90;;;;;;4944850;29;20404;-83
2024/03/09 03:35:34;;;;;;;9.43;8.63;;;-0.20;99.90;;;;;;4935179;29;20278;-85
2024/03/09 03:38:02;;;;;;;9.38;6.35;;;-0.20;99.90;;;;;;4951838;29;20275;-82
2024/03/09 03:40:34;;;;;;;9.07;5.28;;;-0.30;99.90;;;;;;4944185;28;20211;-82
2024/03/09 03:43:03;;;;;;;4.03;3.72;;;-0.30;99.90;;;;;;4940729;28;20228;-83
2024/03/09 03:45:31;;;;;;;10.85;9.15;;;-0.40;99.90;;;;;;4945017;29;20214;-86
2024/03/09 03:48:01;;;;;;;21.67;8.90;;;-0.30;99.90;;;;;;4944329;29;20211;-85
2024/03/09 03:50:28;;;;;;;5.05;4.75;;;-0.30;99.90;;;;;;4943219;29;20279;-84
2024/03/09 03:52:57;;;;;;;11.05;7.63;;;-0.40;99.90;;;;;;4947827;29;20215;-84
2024/03/09 03:55:26;;;;;;;10.73;9.93;;;-0.40;99.90;;;;;;4953188;29;20239;-85
2024/03/09 03:57:56;;;;;;;7.45;7.05;;;-0.40;99.90;;;;;;4952080;28;20200;-88
2024/03/09 04:00:26;;;;;;;8.52;7.82;;;-0.30;99.90;;;;;;5172886;23;20241;-89
2024/03/09 04:02:57;;;;;;;5.13;4.68;;;-0.30;99.90;;;;;;4978020;28;20206;-88
2024/03/09 04:05:29;;;;;;;7.63;6.90;;;-0.40;99.90;;;;;;4977493;28;20246;-89
2024/03/09 04:07:59;;;;;;;9.18;8.27;;;-0.50;99.90;;;;;;4965444;28;20215;-89
2024/03/09 04:10:30;;;;;;;9.00;8.25;;;-0.40;99.90;;;;;;4968767;28;20211;-89
2024/03/09 04:12:59;;;;;;;5.93;5.45;;;-0.40;99.90;;;;;;4979810;28;20207;-88
2024/03/09 04:15:33;;;;;;;5.22;4.85;;;-0.40;99.90;;;;;;4957542;28;20194;-91
2024/03/09 04:18:04;;;;;;;5.97;5.45;;;-0.50;99.90;;;;;;4976937;28;20199;-89
2024/03/09 04:23:17;;;;;;;10.00;9.13;;;-0.50;99.90;;;;;;4794685;23;20218;-89
2024/03/09 04:25:53;;;;;;;6.28;5.75;;;-0.40;99.90;;;;;;5526404;23;21978;-88
2024/03/09 04:28:30;;;;;;;23.30;10.07;;;-0.40;99.90;;;;;;5103082;23;20223;-89
2024/03/09 04:31:01;;;;;;;6.80;5.93;;;-0.50;99.90;;;;;;5107483;23;20288;-88
2024/03/09 04:38:52;;;;;;;7.07;6.05;;;-0.60;99.90;;;;;;5526203;23;20363;-89
2024/03/09 04:41:34;;;;;;;6.18;4.28;;;-0.50;99.90;;;;;;5064696;23;20616;-89
2024/03/09 04:46:32;;;;;;;9.13;8.52;;;-0.30;99.90;;;;;;4951411;28;20220;-91
2024/03/09 04:54:24;;;;;;;8.38;7.47;;;-0.40;99.90;;;;;;5209970;23;20300;-88
2024/03/09 04:56:51;;;;;;;14.07;7.72;;;-0.40;99.90;;;;;;4930015;29;20208;-88
2024/03/09 04:59:18;;;;;;;14.13;7.22;;;-0.40;99.90;;;;;;5598174;23;20634;-85
2024/03/09 05:01:46;;;;;;;8.75;7.93;;;-0.50;99.90;;;;;;5052188;23;20255;-87
2024/03/09 05:04:14;;;;;;;11.27;9.95;;;-0.50;99.90;;;;;;4949953;29;20228;-89
2024/03/09 05:06:44;;;;;;;8.60;7.15;;;-0.40;99.90;;;;;;4955201;29;20216;-86
2024/03/09 05:09:15;;;;;;;13.88;11.95;;;-0.50;99.90;;;;;;5065195;23;20234;-88
2024/03/09 05:11:42;;;;;;;12.75;10.95;;;-0.50;99.90;;;;;;4971594;28;20218;-86
2024/03/09 05:14:15;;;;;;;17.20;7.35;;;-0.70;99.90;;;;;;4968426;28;20432;-85
2024/03/09 05:16:44;;;;;;;8.35;7.57;;;-0.70;99.90;;;;;;4969803;28;20214;-87
2024/03/09 05:21:53;;;;;;;8.77;8.27;;;-0.50;99.90;;;;;;5509386;23;20490;-87
2024/03/09 05:24:23;;;;;;;9.55;8.82;;;-0.60;99.90;;;;;;5579329;23;21340;-87
2024/03/09 05:26:50;;;;;;;12.40;7.90;;;-0.60;99.90;;;;;;4953179;28;20235;-87
2024/03/09 05:29:31;;;;;;;8.88;8.27;;;-0.50;99.90;;;;;;5115877;23;20585;-89
2024/03/09 05:32:05;;;;;;;9.13;7.95;;;-0.50;99.90;;;;;;5280761;23;20462;-89
2024/03/09 05:34:36;;;;;;;9.77;8.90;;;-0.50;99.90;;;;;;5761936;23;20362;-88
2024/03/09 05:39:39;;;;;;;30.42;7.15;;;-0.40;99.90;;;;;;4931897;29;20208;-87
2024/03/09 05:42:08;;;;;;;9.40;8.68;;;-0.40;99.90;;;;;;4960809;23;20254;-88
2024/03/09 05:44:39;;;;;;;17.55;10.10;;;-0.40;99.90;;;;;;5303075;23;20262;-87
2024/03/09 05:49:47;;;;;;;5.95;5.65;;;-0.30;99.90;;;;;;4955406;23;20247;-89
2024/03/09 05:52:15;;;;;;;6.35;5.85;;;-0.30;99.90;;;;;;5154747;23;20278;-88
2024/03/09 05:54:42;;;;;;;11.55;6.68;;;-0.20;99.90;;;;;;4949463;29;20280;-85
2024/03/09 05:57:09;;;;;;;12.65;11.13;;;-0.20;99.90;;;;;;4945453;29;20418;-85
2024/03/09 05:59:37;;;;;;;8.40;7.07;;;-0.10;99.90;;;;;;4947319;29;20238;-88
2024/03/09 06:02:05;;;;;;;20.10;10.85;;;-0.10;99.90;;;;;;4947789;29;20284;-87
2024/03/09 06:04:32;;;;;;;8.52;7.80;;;0.00;99.90;;;;;;4952944;29;20208;-89
2024/03/09 06:07:00;;;;;;;5.93;5.43;;;0.00;99.90;;;;;;4951226;29;20207;-87
2024/03/09 06:09:31;;;;;;;8.15;7.20;;;0.10;99.90;;;;;;5238043;23;20247;-88
2024/03/09 06:14:33;;;;;;;6.45;6.00;;;0.20;99.90;;;;;;5099541;23;20245;-87
2024/03/09 06:17:01;;;;;;;12.23;8.65;;;0.30;99.90;;;;;;5117124;23;20263;-88
2024/03/09 06:19:30;;;;;;;6.05;5.57;;;0.40;99.90;;;;;;5135697;23;20252;-86
2024/03/09 06:21:59;;;;;;;12.07;8.70;;;0.40;99.90;;;;;;4944285;28;20234;-86
2024/03/09 06:24:32;;;;;;;7.22;6.82;;;0.50;99.90;;;;;;4946667;28;20212;-87
2024/03/09 06:27:01;;;;;;;4.95;4.47;;;1.00;99.90;;;;;;4932856;29;20246;-89
2024/03/09 06:29:29;;;;;;;17.38;7.80;;;2.00;99.90;;;;;;4930541;29;20211;-86
2024/03/09 06:31:58;;;;;;;12.15;7.75;;;2.20;99.90;;;;;;5010319;23;20231;-87
2024/03/09 06:34:32;;;;;;;9.10;8.32;;;2.40;99.90;;;;;;4938476;29;20200;-83
2024/03/09 06:37:02;;;;;;;6.82;6.25;;;2.50;99.90;;;;;;4934747;29;20241;-82
2024/03/09 06:39:32;;;;;;;9.48;8.73;;;3.10;99.90;;;;;;4939083;29;20479;-86
2024/03/09 06:42:09;;;;;;;5.35;5.05;;;3.00;99.90;;;;;;4993936;23;20255;-84
2024/03/09 06:44:39;;;;;;;4.53;4.32;;;2.90;99.90;;;;;;4945783;29;20247;-84
2024/03/09 06:47:09;;;;;;;16.80;9.80;;;3.40;99.90;;;;;;4955232;29;20188;-83
2024/03/09 06:49:36;;;;;;;8.20;5.55;;;3.70;99.90;;;;;;5059410;23;20241;-84
2024/03/09 06:52:18;;;;;;;5.93;5.57;;;3.20;99.90;;;;;;4955375;29;20485;-86
2024/03/09 06:54:46;;;;;;;8.05;7.35;;;3.30;99.90;;;;;;4955628;29;20211;-84
2024/03/09 06:57:15;;;;;;;6.80;6.35;;;2.80;99.90;;;;;;4944216;29;20210;-84
2024/03/09 06:59:42;;;;;;;11.10;7.57;;;3.50;99.90;;;;;;4945572;28;20291;-87
2024/03/09 07:02:10;;;;;;;14.60;7.00;;;3.10;99.90;;;;;;4937739;29;20216;-84
2024/03/09 07:04:43;;;;;;;6.47;6.15;;;3.10;99.90;;;;;;4939896;29;20218;-83
2024/03/09 07:07:10;;;;;;;6.15;5.72;;;3.50;99.90;;;;;;4940258;29;20208;-83
2024/03/09 07:09:37;;;;;;;6.93;6.22;;;5.00;99.90;;;;;;4943601;29;20236;-83
2024/03/09 07:12:05;;;;;;;2.75;2.65;;;5.30;99.90;;;;;;4940129;29;20256;-83
2024/03/09 07:14:33;;;;;;;3.28;3.15;;;4.70;99.90;;;;;;4944269;28;20197;-84
2024/03/09 07:17:01;;;;;;;2.05;1.95;;;4.60;99.90;;;;;;4942945;29;20212;-82
2024/03/09 07:19:32;;;;;;;6.57;6.07;;;4.70;99.90;;;;;;4931489;29;20207;-84
2024/03/09 07:22:02;;;;;;;6.35;6.05;;;4.30;99.90;;;;;;4942222;29;20204;-83
2024/03/09 07:24:30;;;;;;;3.08;2.88;;;4.60;99.90;;;;;;4947156;29;20231;-83
2024/03/09 07:26:57;;;;;;;7.93;7.25;;;4.60;99.90;;;;;;4946093;29;20211;-83
2024/03/09 07:29:35;;;;;;;5.03;4.72;;;6.00;99.90;;;;;;4947054;29;20238;-85
2024/03/09 07:32:06;;;;;;;4.93;4.68;;;5.90;99.90;;;;;;4946551;29;20560;-88
2024/03/09 07:34:56;;;;;;;6.10;5.50;;;5.80;99.90;;;;;;4929822;29;20195;-86
2024/03/09 07:37:24;;;;;;;2.67;2.58;;;6.90;99.90;;;;;;4944604;29;20195;-85
2024/03/09 07:39:51;;;;;;;3.38;3.17;;;8.20;99.90;;;;;;4938143;29;20297;-85
2024/03/09 07:42:18;;;;;;;2.17;2.08;;;8.20;99.90;;;;;;4942804;29;20208;-86
2024/03/09 07:44:57;;;;;;;2.95;2.80;;;9.00;99.90;;;;;;4960464;28;20231;-89
2024/03/09 07:47:32;;;;;;;2.90;2.80;;;9.30;99.90;;;;;;4938745;29;20199;-86
2024/03/09 07:50:03;;;;;;;1.98;1.92;;;10.90;99.90;;;;;;4957992;29;20211;-84
2024/03/09 07:52:32;;;;;;;6.97;6.40;;;10.10;99.90;;;;;;4945210;29;20216;-84
2024/03/09 07:55:00;;;;;;;4.00;3.78;;;9.80;99.90;;;;;;4944131;29;20508;-85
2024/03/09 07:57:28;;;;;;;4.28;4.05;;;10.30;99.90;;;;;;4945190;29;20203;-86
2024/03/09 07:59:57;;;;;;;5.45;5.15;;;10.20;99.90;;;;;;4939208;29;20223;-84
2024/03/09 08:02:24;;;;;;;7.18;4.20;;;10.20;99.90;;;;;;4959224;29;20231;-85
2024/03/09 08:04:50;;;;;;;3.83;3.63;;;10.20;99.90;;;;;;4944876;29;20294;-81
2024/03/09 08:07:25;;;;;;;5.82;5.47;;;9.60;99.90;;;;;;4944234;28;20248;-83
2024/03/09 08:09:55;;;;;;;5.63;5.30;;;10.30;99.90;;;;;;4956966;29;20518;-84
2024/03/09 08:12:35;;;;;;;5.38;5.07;;;10.00;99.90;;;;;;4958929;28;20203;-83
2024/03/09 08:15:08;;;;;;;4.18;3.83;;;9.30;99.90;;;;;;4955727;29;20200;-87
2024/03/09 08:17:43;;;;;;;1.52;1.52;;;10.30;99.90;;;;;;4962978;28;20250;-87
2024/03/09 08:20:20;;;;;;;2.50;2.40;;;10.70;99.90;;;;;;4945730;29;20243;-84
2024/03/09 08:22:52;;;;;;;15.25;7.85;;;11.70;94.70;;;;;;4944486;29;20209;-84
2024/03/09 08:25:20;;;;;;;4.65;4.32;;;11.80;95.20;;;;;;4945896;29;20372;-83
2024/03/09 08:27:49;;;;;;;4.82;4.53;;;12.10;93.10;;;;;;4949663;29;20198;-84
2024/03/09 08:30:24;;;;;;;3.27;3.13;;;11.80;93.90;;;;;;4962277;29;20208;-80
2024/03/09 08:32:54;;;;;;;3.78;3.58;;;11.20;94.30;;;;;;4970762;28;20428;-89
2024/03/09 08:35:37;;;;;;;4.47;4.07;;;9.50;99.90;;;;;;4959015;29;20260;-83
2024/03/09 08:38:06;;;;;;;5.20;4.90;;;10.80;99.90;;;;;;4952301;29;20480;-85
2024/03/09 08:40:36;;;;;;;3.03;2.83;;;11.00;99.90;;;;;;4947460;29;20510;-88
2024/03/09 08:43:07;;;;;;;3.73;3.53;;;11.20;99.90;;;;;;4943515;29;20834;-83
2024/03/09 08:45:34;;;;;;;3.87;3.57;;;10.90;99.70;;;;;;4949535;29;20508;-82
2024/03/09 08:48:04;;;;;;;5.47;5.03;;;10.50;99.90;;;;;;4949212;29;20457;-85
2024/03/09 08:50:34;;;;;;;3.47;3.30;;;9.70;99.90;;;;;;4945552;29;20214;-81
2024/03/09 08:53:02;;;;;;;4.00;3.80;;;9.10;99.90;;;;;;4945321;28;20214;-82
2024/03/09 08:55:32;;;;;;;8.02;5.28;;;9.50;99.90;;;;;;4946565;29;20224;-84
2024/03/09 08:58:01;;;;;;;4.15;3.80;;;9.20;99.90;;;;;;4951362;29;20214;-82
2024/03/09 09:00:31;;;;;;;4.72;4.30;;;8.90;99.90;;;;;;4949671;29;20208;-83
2024/03/09 09:02:59;;;;;;;4.80;4.50;;;9.20;99.90;;;;;;4946604;29;20250;-85
2024/03/09 09:05:29;;;;;;;2.42;2.22;;;9.50;99.90;;;;;;4944368;29;20476;-81
2024/03/09 09:07:58;;;;;;;3.83;3.63;;;9.40;99.90;;;;;;4950417;29;20286;-82
2024/03/09 09:10:29;;;;;;;3.00;2.80;;;9.90;99.90;;;;;;4962700;28;20209;-84
2024/03/09 09:12:57;;;;;;;8.45;1.60;;;10.30;99.90;;;;;;4961906;28;20195;-83
2024/03/09 09:15:25;;;;;;;5.50;4.90;;;9.40;99.90;;;;;;4973861;28;20234;-83
2024/03/09 09:17:55;;;;;;;3.00;2.90;;;9.50;99.90;;;;;;4947682;29;20265;-83
2024/03/09 09:20:22;;;;;;;4.07;3.90;;;10.10;99.90;;;;;;4931241;29;20473;-80
2024/03/09 09:22:55;;;;;;;1.00;1.00;;;10.00;99.90;;;;;;4942819;29;20432;-80
2024/03/09 09:25:26;;;;;;;3.13;2.90;;;9.70;99.90;;;;;;4944933;29;20460;-83
2024/03/09 09:28:01;;;;;;;2.25;2.15;;;9.80;99.90;;;;;;4945962;29;20518;-81
2024/03/09 09:30:29;;;;;;;3.42;3.22;;;9.70;99.90;;;;;;4952937;29;20428;-82
2024/03/09 09:32:57;;;;;;;3.72;3.53;;;9.60;99.90;;;;;;4946156;29;20607;-81
2024/03/09 09:35:27;;;;;;;5.78;5.40;;;10.10;99.90;;;;;;4960427;29;20215;-79
2024/03/09 09:37:57;;;;;;;2.65;2.55;;;10.20;99.90;;;;;;4944981;29;20222;-85
2024/03/09 09:40:29;;;;;;;2.53;2.42;;;10.10;99.90;;;;;;4941975;29;20244;-82
2024/03/09 09:43:09;;;;;;;3.45;3.25;;;10.00;99.90;;;;;;4958372;29;20218;-79
2024/03/09 09:45:44;;;;;;;2.58;2.22;;;10.20;99.90;;;;;;4933813;29;20241;-82
2024/03/09 09:48:11;;;;;;;3.42;2.53;;;9.70;99.90;;;;;;4942565;29;20260;-85
2024/03/09 09:50:41;;;;;;;3.15;2.95;;;9.50;99.90;;;;;;4946106;29;20235;-82
2024/03/09 09:53:14;;;;;;;3.05;2.88;;;9.60;99.90;;;;;;4948790;29;20511;-81
2024/03/09 09:55:41;;;;;;;2.65;1.85;;;9.70;99.90;;;;;;4944519;29;20240;-83
2024/03/09 09:58:09;;;;;;;1.92;1.83;;;9.80;99.90;;;;;;4940271;29;20200;-80
2024/03/09 10:00:37;;;;;;;0.85;0.85;;;10.10;99.90;;;;;;4955073;29;20211;-81
2024/03/09 10:03:04;;;;;;;4.93;2.47;;;10.00;99.90;;;;;;4944640;29;20473;-83
2024/03/09 10:05:34;;;;;;;0.70;0.70;;;9.90;99.90;;;;;;4942917;29;20650;-81
2024/03/09 10:08:09;;;;;;;0.85;0.85;;;9.90;99.90;;;;;;4953358;29;20291;-81
2024/03/09 10:10:47;;;;;;;1.65;1.55;;;9.60;99.90;;;;;;4940230;29;20214;-81
2024/03/09 10:13:16;;;;;;;2.70;1.85;;;9.70;99.90;;;;;;4938439;29;20204;-80
2024/03/09 10:15:45;;;;;;;2.38;2.28;;;9.90;99.90;;;;;;4934671;29;20309;-81
2024/03/09 10:18:13;;;;;;;2.20;2.00;;;9.90;99.90;;;;;;4943281;29;20263;-81
2024/03/09 10:20:40;;;;;;;3.13;2.97;;;10.00;99.90;;;;;;4941484;29;20208;-83
2024/03/09 10:23:11;;;;;;;3.30;3.13;;;9.90;99.90;;;;;;4948466;29;20240;-82
2024/03/09 10:25:40;;;;;;;1.63;1.13;;;9.70;99.90;;;;;;4943301;29;20220;-83
2024/03/09 10:28:10;;;;;;;1.45;1.45;;;10.00;99.90;;;;;;4937427;29;20212;-82
2024/03/09 10:30:38;;;;;;;1.60;1.45;;;9.70;99.90;;;;;;4959810;29;20218;-84
2024/03/09 10:33:15;;;;;;;1.77;1.67;;;10.10;99.90;;;;;;4945395;29;20211;-82
2024/03/09 10:35:46;;;;;;;1.85;1.75;;;9.80;99.90;;;;;;4940375;29;20212;-81
2024/03/09 10:38:17;;;;;;;1.75;1.65;;;9.90;99.90;;;;;;4946876;29;20240;-81
2024/03/09 10:40:44;;;;;;;1.10;1.10;;;10.00;99.90;;;;;;4952789;29;20435;-80
2024/03/09 10:43:14;;;;;;;1.02;1.02;;;9.90;99.90;;;;;;4948513;29;20286;-81
2024/03/09 10:45:45;;;;;;;0.90;0.90;;;9.90;99.90;;;;;;4944906;29;20770;-80
2024/03/09 10:48:12;;;;;;;1.10;1.10;;;10.20;99.90;;;;;;4954980;28;20314;-81
2024/03/09 10:50:50;;;;;;;1.10;1.10;;;9.80;99.90;;;;;;4958303;28;20275;-87
2024/03/09 10:53:18;;;;;;;1.45;1.40;;;9.90;99.90;;;;;;4945916;29;20207;-82
2024/03/09 10:55:54;;;;;;;0.60;0.60;;;9.70;99.90;;;;;;4957551;29;20199;-81
2024/03/09 10:58:26;;;;;;;0.98;0.98;;;9.80;99.90;;;;;;4959406;29;20227;-83
2024/03/09 11:00:55;;;;;;;1.38;1.38;;;9.80;99.90;;;;;;4956350;28;20243;-83
2024/03/09 11:03:26;;;;;;;1.35;1.35;;;9.90;99.90;;;;;;4946049;29;20208;-83
2024/03/09 11:05:54;;;;;;;5.47;4.22;;;10.60;99.90;;;;;;4940613;29;20212;-84
2024/03/09 11:08:23;;;;;;;0.90;0.90;;;11.20;97.50;;;;;;4944982;29;20211;-83
2024/03/09 11:10:54;;;;;;;1.88;1.77;;;11.30;96.60;;;;;;4936389;29;20215;-81
2024/03/09 11:13:25;;;;;;;2.08;2.00;;;11.20;96.00;;;;;;4933373;29;20214;-80
2024/03/09 11:15:55;;;;;;;1.13;1.13;;;11.10;95.60;;;;;;4957150;29;20207;-81
2024/03/09 11:18:22;;;;;;;0.70;0.70;;;11.10;95.80;;;;;;4951880;29;20215;-84
2024/03/09 11:21:02;;;;;;;2.03;1.92;;;10.90;95.80;;;;;;4937176;29;20234;-85
2024/03/09 11:23:33;;;;;;;2.58;2.42;;;10.90;97.10;;;;;;4945622;29;20220;-82
2024/03/09 11:26:03;;;;;;;3.05;2.78;;;11.40;96.00;;;;;;4962472;28;20759;-82
2024/03/09 11:28:43;;;;;;;2.00;1.90;;;11.40;96.10;;;;;;4960398;28;20206;-81
2024/03/09 11:31:11;;;;;;;1.77;1.73;;;11.30;96.10;;;;;;4952886;29;20915;-82
2024/03/09 11:33:51;;;;;;;4.30;3.97;;;11.20;95.80;;;;;;4946367;29;20205;-83
2024/03/09 11:37:04;;;;;;;0.85;0.85;;;11.10;95.50;;;;;;4944919;29;20445;-83
2024/03/09 11:39:32;;;;;;;3.25;3.00;;;11.00;95.30;;;;;;4944248;29;20708;-81
2024/03/09 11:42:12;;;;;;;1.40;1.38;;;11.20;96.00;;;;;;4938903;29;20321;-85
2024/03/09 11:44:42;;;;;;;1.70;1.55;;;11.50;95.10;;;;;;4955486;29;20242;-82
2024/03/09 11:47:16;;;;;;;1.27;1.27;;;11.40;95.90;;;;;;4943875;29;20205;-80
2024/03/09 11:49:44;;;;;;;1.75;1.65;;;11.50;96.20;;;;;;4928215;29;20228;-80
2024/03/09 11:52:22;;;;;;;2.47;1.65;;;11.80;95.60;;;;;;4941485;29;20746;-82
2024/03/09 11:54:50;;;;;;;1.10;1.10;;;11.30;94.90;;;;;;4944710;29;20216;-85
2024/03/09 11:57:18;;;;;;;2.30;2.20;;;11.10;96.40;;;;;;4942523;28;20281;-83
2024/03/09 11:59:45;;;;;;;1.52;1.42;;;11.00;96.20;;;;;;4945065;29;20350;-85
2024/03/09 12:02:15;;;;;;;1.40;1.40;;;11.00;97.40;;;;;;4947868;29;20204;-85
2024/03/09 12:04:42;;;;;;;3.35;3.15;;;11.10;96.60;;;;;;4948910;29;20246;-84
2024/03/09 12:07:12;;;;;;;2.00;1.90;;;11.10;96.80;;;;;;4967346;29;20208;-83
2024/03/09 12:09:44;;;;;;;1.13;1.13;;;11.00;97.60;;;;;;4953156;29;20240;-84
2024/03/09 12:12:14;;;;;;;1.73;1.63;;;10.90;97.70;;;;;;4955658;29;20192;-85
2024/03/09 12:14:55;;;;;;;3.45;3.25;;;10.70;99.90;;;;;;4954749;29;20199;-83
2024/03/09 12:17:23;;;;;;;2.08;1.98;;;11.10;99.90;;;;;;4954869;29;20220;-83
2024/03/09 12:19:52;;;;;;;0.73;0.73;;;11.00;99.00;;;;;;4964862;29;20456;-83
2024/03/09 12:22:19;;;;;;;4.30;4.00;;;11.20;99.90;;;;;;4948565;29;20224;-84
2024/03/09 12:24:47;;;;;;;2.97;2.78;;;11.20;99.80;;;;;;4949238;29;20291;-81
2024/03/09 12:27:14;;;;;;;1.60;1.50;;;10.90;99.50;;;;;;4962456;29;20208;-83
2024/03/09 12:29:42;;;;;;;0.95;0.95;;;10.80;99.40;;;;;;4949734;29;20341;-81
2024/03/09 12:32:14;;;;;;;2.63;2.53;;;10.60;99.90;;;;;;4963031;28;20208;-83
2024/03/09 12:34:43;;;;;;;3.53;3.33;;;10.60;99.90;;;;;;4944164;29;20542;-81
2024/03/09 12:37:10;;;;;;;3.40;3.20;;;10.80;99.90;;;;;;4948205;29;20211;-82
2024/03/09 12:39:38;;;;;;;2.78;2.67;;;10.60;99.90;;;;;;4947268;29;20369;-82
2024/03/09 12:42:06;;;;;;;1.63;1.52;;;10.60;99.90;;;;;;4963201;28;21304;-81
2024/03/09 12:44:39;;;;;;;0.60;0.60;;;10.50;99.90;;;;;;4944460;29;20404;-79
2024/03/09 12:47:06;;;;;;;2.05;1.85;;;10.40;99.90;;;;;;4958493;29;20243;-82
2024/03/09 12:49:34;;;;;;;3.03;2.85;;;10.30;99.90;;;;;;4944401;29;20220;-81
2024/03/09 12:52:10;;;;;;;1.35;1.35;;;10.30;99.90;;;;;;4945591;29;20208;-83
2024/03/09 12:54:44;;;;;;;2.30;2.20;;;10.10;99.90;;;;;;4948121;29;20235;-85
2024/03/09 12:57:17;;;;;;;0.93;0.93;;;10.10;99.90;;;;;;4945898;29;20234;-80
2024/03/09 12:59:44;;;;;;;1.27;1.27;;;10.10;99.90;;;;;;4945656;29;20203;-81
2024/03/09 13:02:11;;;;;;;1.33;1.33;;;10.40;99.90;;;;;;4962583;29;20192;-81
2024/03/09 13:04:38;;;;;;;2.55;2.45;;;10.50;99.90;;;;;;4959139;28;20225;-80
2024/03/09 13:07:05;;;;;;;3.10;3.00;;;10.30;99.90;;;;;;4948637;29;20192;-84
2024/03/09 13:09:32;;;;;;;5.07;1.30;;;10.50;99.90;;;;;;4956971;29;20199;-82
2024/03/09 13:12:02;;;;;;;0.90;0.90;;;10.50;99.90;;;;;;4953924;29;20231;-83
2024/03/09 13:14:33;;;;;;;0.75;0.75;;;10.40;99.90;;;;;;4961347;28;20223;-83
2024/03/09 13:17:05;;;;;;;0.70;0.70;;;10.70;99.90;;;;;;4963221;29;20513;-80
2024/03/09 13:19:33;;;;;;;2.25;2.15;;;10.60;99.90;;;;;;4952828;29;20240;-83
2024/03/09 13:22:02;;;;;;;4.28;3.97;;;10.50;99.90;;;;;;4968639;29;20206;-82
2024/03/09 13:24:30;;;;;;;1.55;1.52;;;10.60;99.90;;;;;;4950785;29;20258;-83
2024/03/09 13:27:00;;;;;;;1.55;1.55;;;10.60;99.90;;;;;;4942792;29;20223;-86
2024/03/09 13:29:33;;;;;;;1.92;1.83;;;10.60;99.90;;;;;;4949021;29;20207;-80
2024/03/09 13:32:15;;;;;;;2.45;2.35;;;10.60;99.90;;;;;;4944475;29;20200;-86
2024/03/09 13:34:44;;;;;;;0.93;0.93;;;10.70;99.90;;;;;;4940220;29;20239;-82